Time;durP1;ratioP1;P1;durP2;ratioP2;P2;SDS_P1;SDS_P2;PMS_P1;PMS_P2;Temp;Humidity;BMP_temperature;BMP_pressure;BME280_temperature;BME280_humidity;BME280_pressure;Samples;Min_cycle;Max_cycle;Signal;HPM_P1;HPM_P2
2022/07/16 00:02:17;;;;;;;6.53;2.47;;;;;;;;;;757080;183;919265;-60
2022/07/16 00:04:43;;;;;;;9.03;3.10;;;;;;;;;;754219;185;821659;-64
2022/07/16 00:07:09;;;;;;;4.70;2.60;;;;;;;;;;759508;185;770388;-59
2022/07/16 00:09:35;;;;;;;23.50;5.10;;;;;;;;;;746944;185;922542;-63
2022/07/16 00:12:01;;;;;;;3.80;2.40;;;;;;;;;;750130;185;824724;-60
2022/07/16 00:14:26;;;;;;;4.20;2.97;;;;;;;;;;754249;185;818115;-63
2022/07/16 00:16:52;;;;;;;3.63;2.80;;;;;;;;;;751351;185;918290;-59
2022/07/16 00:19:19;;;;;;;6.60;3.10;;;;;;;;;;749132;183;919390;-63
2022/07/16 00:21:44;;;;;;;4.30;2.27;;;;;;;;;;753169;185;919294;-61
2022/07/16 00:24:10;;;;;;;5.50;2.63;;;;;;;;;;751599;185;919523;-63
2022/07/16 00:26:36;;;;;;;5.47;3.00;;;;;;;;;;749885;184;919148;-63
2022/07/16 00:29:01;;;;;;;7.87;2.80;;;;;;;;;;752105;185;938924;-63
2022/07/16 00:31:27;;;;;;;4.67;2.10;;;;;;;;;;755761;185;920110;-60
2022/07/16 00:33:53;;;;;;;4.80;2.43;;;;;;;;;;747498;186;919102;-60
2022/07/16 00:36:19;;;;;;;3.45;2.60;;;;;;;;;;747746;186;919185;-63
2022/07/16 00:38:45;;;;;;;9.75;3.70;;;;;;;;;;752629;185;872423;-63
2022/07/16 00:41:16;;;;;;;5.67;2.50;;;;;;;;;;757008;185;908098;-62
2022/07/16 00:43:42;;;;;;;4.40;2.50;;;;;;;;;;756076;184;902411;-61
2022/07/16 00:46:08;;;;;;;5.90;3.57;;;;;;;;;;750839;184;918830;-62
2022/07/16 00:48:34;;;;;;;3.30;2.40;;;;;;;;;;761571;185;817166;-63
2022/07/16 00:51:00;;;;;;;7.10;2.70;;;;;;;;;;755846;183;919526;-62
2022/07/16 00:53:26;;;;;;;7.40;2.87;;;;;;;;;;751334;184;918276;-63
2022/07/16 00:55:52;;;;;;;5.07;2.97;;;;;;;;;;746201;186;917012;-62
2022/07/16 00:58:17;;;;;;;4.43;2.70;;;;;;;;;;750483;186;919428;-64
2022/07/16 01:00:43;;;;;;;4.72;2.80;;;;;;;;;;750273;185;923250;-61
2022/07/16 01:03:09;;;;;;;8.00;3.22;;;;;;;;;;756890;185;918900;-59
2022/07/16 01:05:35;;;;;;;4.90;2.90;;;;;;;;;;748473;185;915870;-60
2022/07/16 01:08:01;;;;;;;3.60;2.50;;;;;;;;;;749045;186;919023;-60
2022/07/16 01:10:27;;;;;;;7.10;3.40;;;;;;;;;;751698;186;918912;-63
2022/07/16 01:12:52;;;;;;;5.33;3.17;;;;;;;;;;752461;185;919012;-63
2022/07/16 01:15:18;;;;;;;5.00;2.97;;;;;;;;;;753184;185;923347;-62
2022/07/16 01:17:45;;;;;;;4.13;3.03;;;;;;;;;;751297;184;919343;-66
2022/07/16 01:20:11;;;;;;;11.30;4.73;;;;;;;;;;757274;185;806911;-62
2022/07/16 01:22:37;;;;;;;7.87;2.63;;;;;;;;;;750844;183;919244;-62
2022/07/16 01:25:03;;;;;;;4.50;3.00;;;;;;;;;;745686;185;811260;-63
2022/07/16 01:27:29;;;;;;;3.80;2.73;;;;;;;;;;752543;185;917122;-65
2022/07/16 01:29:55;;;;;;;3.87;2.83;;;;;;;;;;748604;185;917426;-67
2022/07/16 01:32:21;;;;;;;4.83;2.70;;;;;;;;;;750292;185;855790;-62
2022/07/16 01:34:46;;;;;;;3.87;2.50;;;;;;;;;;749602;183;918541;-63
2022/07/16 01:37:14;;;;;;;6.90;3.30;;;;;;;;;;754599;183;921085;-63
2022/07/16 01:39:38;;;;;;;3.70;2.30;;;;;;;;;;750660;183;919339;-68
2022/07/16 01:42:04;;;;;;;5.60;3.27;;;;;;;;;;749249;186;918530;-63
2022/07/16 01:44:30;;;;;;;5.73;2.63;;;;;;;;;;754129;184;919184;-63
2022/07/16 01:46:56;;;;;;;3.47;2.40;;;;;;;;;;748150;185;912639;-66
2022/07/16 01:49:22;;;;;;;5.05;2.30;;;;;;;;;;747705;185;918181;-63
2022/07/16 01:51:47;;;;;;;7.97;2.30;;;;;;;;;;756823;185;815885;-63
2022/07/16 01:54:13;;;;;;;6.03;3.30;;;;;;;;;;747849;185;1180118;-61
2022/07/16 01:56:39;;;;;;;8.43;3.00;;;;;;;;;;748141;185;918729;-68
2022/07/16 01:59:05;;;;;;;8.40;2.70;;;;;;;;;;757226;182;819854;-63
2022/07/16 02:01:31;;;;;;;6.10;3.00;;;;;;;;;;754905;185;920206;-68
2022/07/16 02:03:57;;;;;;;4.00;2.27;;;;;;;;;;754228;185;921171;-60
2022/07/16 02:06:22;;;;;;;7.00;3.10;;;;;;;;;;756938;184;918105;-60
2022/07/16 02:08:48;;;;;;;7.23;3.20;;;;;;;;;;753846;184;817471;-60
2022/07/16 02:11:14;;;;;;;5.73;3.00;;;;;;;;;;742935;185;918557;-63
2022/07/16 02:13:40;;;;;;;5.90;2.70;;;;;;;;;;751934;182;914301;-64
2022/07/16 02:16:06;;;;;;;5.67;2.70;;;;;;;;;;754131;185;815066;-68
2022/07/16 02:18:32;;;;;;;5.03;3.00;;;;;;;;;;753132;184;919510;-65
2022/07/16 02:20:58;;;;;;;8.13;2.40;;;;;;;;;;743519;187;920537;-65
2022/07/16 02:23:23;;;;;;;5.17;3.50;;;;;;;;;;757589;185;912660;-60
2022/07/16 02:25:49;;;;;;;4.97;2.70;;;;;;;;;;751019;185;916929;-64
2022/07/16 02:28:15;;;;;;;4.03;3.00;;;;;;;;;;746876;184;927588;-59
2022/07/16 02:30:41;;;;;;;3.60;3.07;;;;;;;;;;751483;185;924357;-65
2022/07/16 02:33:07;;;;;;;6.18;2.60;;;;;;;;;;753844;185;919074;-64
2022/07/16 02:35:33;;;;;;;5.13;2.90;;;;;;;;;;750761;185;899139;-65
2022/07/16 02:37:59;;;;;;;9.43;2.90;;;;;;;;;;750256;185;919904;-60
2022/07/16 02:40:24;;;;;;;5.97;3.03;;;;;;;;;;754292;183;918615;-60
2022/07/16 02:42:50;;;;;;;5.80;2.80;;;;;;;;;;751991;185;919687;-60
2022/07/16 02:45:16;;;;;;;6.00;2.80;;;;;;;;;;750452;184;919127;-65
2022/07/16 02:47:42;;;;;;;5.80;3.50;;;;;;;;;;757730;185;921668;-63
2022/07/16 02:50:08;;;;;;;5.13;2.90;;;;;;;;;;749060;185;920353;-64
2022/07/16 02:52:34;;;;;;;5.70;2.83;;;;;;;;;;749656;185;920914;-60
2022/07/16 02:55:00;;;;;;;4.03;2.70;;;;;;;;;;750143;185;919592;-60
2022/07/16 02:57:25;;;;;;;5.90;3.10;;;;;;;;;;757980;185;816601;-65
2022/07/16 02:59:51;;;;;;;3.80;2.50;;;;;;;;;;747531;186;1328477;-65
2022/07/16 03:02:17;;;;;;;4.10;2.60;;;;;;;;;;750059;186;916229;-60
2022/07/16 03:04:43;;;;;;;3.30;2.40;;;;;;;;;;758082;185;785069;-60
2022/07/16 03:07:09;;;;;;;4.67;2.70;;;;;;;;;;751273;184;815605;-65
2022/07/16 03:09:35;;;;;;;4.30;2.50;;;;;;;;;;749100;185;918785;-66
2022/07/16 03:12:00;;;;;;;3.40;2.53;;;;;;;;;;766316;181;920773;-60
2022/07/16 03:14:26;;;;;;;3.80;2.60;;;;;;;;;;752563;184;918829;-64
2022/07/16 03:16:52;;;;;;;7.63;3.30;;;;;;;;;;752200;185;919317;-59
2022/07/16 03:19:18;;;;;;;4.20;2.70;;;;;;;;;;753123;185;918816;-61
2022/07/16 03:21:44;;;;;;;5.67;3.10;;;;;;;;;;758821;185;880609;-59
2022/07/16 03:24:10;;;;;;;4.40;2.47;;;;;;;;;;754724;185;918647;-65
2022/07/16 03:26:36;;;;;;;5.10;3.10;;;;;;;;;;751906;185;826246;-60
2022/07/16 03:29:02;;;;;;;4.10;2.80;;;;;;;;;;757005;185;815565;-60
2022/07/16 03:31:27;;;;;;;3.40;2.60;;;;;;;;;;751679;185;918527;-65
2022/07/16 03:33:53;;;;;;;4.80;3.00;;;;;;;;;;753959;186;628888;-65
2022/07/16 03:36:19;;;;;;;5.80;3.20;;;;;;;;;;755912;184;927486;-60
2022/07/16 03:41:17;;;;;;;3.83;2.83;;;;;;;;;;752892;183;878131;-64
2022/07/16 03:43:43;;;;;;;5.67;3.07;;;;;;;;;;749111;185;917128;-65
2022/07/16 03:46:12;;;;;;;5.77;3.20;;;;;;;;;;756122;185;816044;-66
2022/07/16 03:48:34;;;;;;;6.47;3.20;;;;;;;;;;750462;184;886432;-65
2022/07/16 03:51:00;;;;;;;5.83;3.73;;;;;;;;;;750007;183;918820;-65
2022/07/16 03:53:26;;;;;;;5.30;3.10;;;;;;;;;;755264;185;816667;-67
2022/07/16 03:55:52;;;;;;;6.77;3.30;;;;;;;;;;744122;185;953927;-66
2022/07/16 03:58:18;;;;;;;6.73;3.70;;;;;;;;;;752484;185;912862;-66
2022/07/16 04:00:43;;;;;;;4.90;2.80;;;;;;;;;;756786;185;918131;-65
2022/07/16 04:03:09;;;;;;;11.20;3.90;;;;;;;;;;753228;185;918994;-60
2022/07/16 04:05:35;;;;;;;11.70;4.10;;;;;;;;;;750944;185;872891;-60
2022/07/16 04:08:01;;;;;;;5.60;3.97;;;;;;;;;;749105;184;919025;-64
2022/07/16 04:10:27;;;;;;;6.20;3.70;;;;;;;;;;747890;186;919771;-64
2022/07/16 04:12:53;;;;;;;10.60;4.87;;;;;;;;;;749018;185;922133;-60
2022/07/16 04:15:18;;;;;;;9.63;4.97;;;;;;;;;;749407;185;919067;-60
2022/07/16 04:17:44;;;;;;;11.57;4.87;;;;;;;;;;755016;185;916671;-65
2022/07/16 04:20:10;;;;;;;8.80;4.83;;;;;;;;;;748506;185;919504;-60
2022/07/16 04:22:36;;;;;;;9.07;5.70;;;;;;;;;;750871;185;919157;-64
2022/07/16 04:25:02;;;;;;;9.30;5.77;;;;;;;;;;759492;184;919251;-60
2022/07/16 04:27:28;;;;;;;15.10;7.10;;;;;;;;;;751095;185;918353;-59
2022/07/16 04:29:54;;;;;;;11.27;7.80;;;;;;;;;;753171;185;920485;-64
2022/07/16 04:32:21;;;;;;;12.50;8.30;;;;;;;;;;752307;183;818209;-60
2022/07/16 04:34:46;;;;;;;12.77;7.63;;;;;;;;;;755730;185;920180;-60
2022/07/16 04:37:12;;;;;;;11.17;8.33;;;;;;;;;;749394;185;918812;-64
2022/07/16 04:39:37;;;;;;;12.27;8.63;;;;;;;;;;751853;184;918130;-60
2022/07/16 04:42:03;;;;;;;15.80;10.03;;;;;;;;;;754208;185;916156;-61
2022/07/16 04:44:29;;;;;;;19.20;11.70;;;;;;;;;;751631;185;918077;-64
2022/07/16 04:46:55;;;;;;;20.27;11.15;;;;;;;;;;741484;184;917884;-59
2022/07/16 04:49:21;;;;;;;14.60;9.47;;;;;;;;;;761453;184;902657;-59
2022/07/16 04:51:47;;;;;;;17.93;11.20;;;;;;;;;;750709;186;883956;-60
2022/07/16 04:54:13;;;;;;;22.93;11.40;;;;;;;;;;748567;185;918748;-59
2022/07/16 04:56:38;;;;;;;20.73;12.67;;;;;;;;;;754688;185;918948;-64
2022/07/16 04:59:04;;;;;;;21.27;12.50;;;;;;;;;;751475;185;921615;-65
2022/07/16 05:01:31;;;;;;;21.67;13.87;;;;;;;;;;749906;185;919474;-60
2022/07/16 05:03:57;;;;;;;19.30;13.40;;;;;;;;;;750899;185;918848;-61
2022/07/16 05:06:23;;;;;;;23.70;15.30;;;;;;;;;;753286;185;917273;-60
2022/07/16 05:08:49;;;;;;;27.33;13.93;;;;;;;;;;748919;185;920473;-61
2022/07/16 05:11:14;;;;;;;15.97;11.80;;;;;;;;;;750093;183;918453;-65
2022/07/16 05:13:40;;;;;;;19.83;13.53;;;;;;;;;;753247;185;919907;-61
2022/07/16 05:16:06;;;;;;;19.77;13.98;;;;;;;;;;749081;185;918704;-63
2022/07/16 05:18:32;;;;;;;22.27;12.60;;;;;;;;;;750735;185;820585;-64
2022/07/16 05:20:58;;;;;;;18.53;11.00;;;;;;;;;;757912;185;919285;-68
2022/07/16 05:23:24;;;;;;;18.77;10.93;;;;;;;;;;747529;185;823913;-67
2022/07/16 05:25:50;;;;;;;20.73;11.67;;;;;;;;;;747609;185;933054;-61
2022/07/16 05:28:16;;;;;;;23.30;12.77;;;;;;;;;;748907;183;917989;-60
2022/07/16 05:30:41;;;;;;;21.17;10.90;;;;;;;;;;752178;185;918270;-67
2022/07/16 05:33:07;;;;;;;18.03;9.00;;;;;;;;;;752478;183;899682;-59
2022/07/16 05:35:33;;;;;;;12.40;8.93;;;;;;;;;;750360;184;919189;-61
2022/07/16 05:37:59;;;;;;;15.30;8.20;;;;;;;;;;754691;184;919799;-60
2022/07/16 05:40:25;;;;;;;8.63;6.77;;;;;;;;;;750278;185;919060;-69
2022/07/16 05:42:51;;;;;;;7.00;5.83;;;;;;;;;;749084;185;920502;-61
2022/07/16 05:45:17;;;;;;;12.50;5.93;;;;;;;;;;755537;185;903474;-68
2022/07/16 05:47:42;;;;;;;10.93;6.27;;;;;;;;;;746843;185;925805;-67
2022/07/16 05:50:09;;;;;;;8.30;5.70;;;;;;;;;;753443;185;617793;-61
2022/07/16 05:52:34;;;;;;;5.70;4.70;;;;;;;;;;752875;186;817590;-68
2022/07/16 05:55:00;;;;;;;8.40;5.50;;;;;;;;;;749676;186;816421;-68
2022/07/16 05:57:26;;;;;;;8.40;4.90;;;;;;;;;;747457;185;1208723;-69
2022/07/16 05:59:52;;;;;;;8.80;4.70;;;;;;;;;;749079;185;825530;-62
2022/07/16 06:02:18;;;;;;;6.13;3.90;;;;;;;;;;754458;185;920710;-68
2022/07/16 06:04:44;;;;;;;5.87;3.10;;;;;;;;;;748811;183;918366;-68
2022/07/16 06:07:09;;;;;;;8.10;3.57;;;;;;;;;;748417;183;918904;-62
2022/07/16 06:09:35;;;;;;;8.17;3.17;;;;;;;;;;754925;185;919527;-69
2022/07/16 06:12:01;;;;;;;9.17;4.20;;;;;;;;;;748548;186;925222;-70
2022/07/16 06:14:27;;;;;;;4.97;3.00;;;;;;;;;;750712;183;912049;-62
2022/07/16 06:16:53;;;;;;;10.47;2.37;;;;;;;;;;752077;183;915166;-61
2022/07/16 06:19:19;;;;;;;7.10;2.57;;;;;;;;;;747431;185;941016;-62
2022/07/16 06:21:45;;;;;;;14.53;2.87;;;;;;;;;;748102;183;903574;-69
2022/07/16 06:24:10;;;;;;;8.00;3.70;;;;;;;;;;748507;184;917412;-62
2022/07/16 06:26:36;;;;;;;4.47;2.37;;;;;;;;;;753720;185;912468;-70
2022/07/16 06:29:02;;;;;;;12.93;2.20;;;;;;;;;;748916;185;911603;-69
2022/07/16 06:31:28;;;;;;;5.90;2.65;;;;;;;;;;748493;185;923268;-62
2022/07/16 06:33:54;;;;;;;6.23;2.87;;;;;;;;;;755112;186;785796;-63
2022/07/16 06:36:20;;;;;;;5.57;2.80;;;;;;;;;;750342;185;1020777;-69
2022/07/16 06:38:46;;;;;;;4.85;2.78;;;;;;;;;;751438;186;816799;-70
2022/07/16 06:41:11;;;;;;;4.80;2.60;;;;;;;;;;759142;184;919498;-63
2022/07/16 06:43:37;;;;;;;9.27;2.87;;;;;;;;;;743505;186;821305;-70
2022/07/16 06:46:03;;;;;;;5.65;2.55;;;;;;;;;;753970;185;819166;-63
2022/07/16 06:48:29;;;;;;;4.47;2.80;;;;;;;;;;754743;185;817097;-70
2022/07/16 06:50:55;;;;;;;6.20;2.60;;;;;;;;;;765534;182;816434;-61
2022/07/16 06:53:20;;;;;;;4.40;2.83;;;;;;;;;;753567;185;917579;-71
2022/07/16 06:55:46;;;;;;;4.30;2.47;;;;;;;;;;753526;185;914940;-70
2022/07/16 06:58:12;;;;;;;4.90;2.67;;;;;;;;;;756983;185;640066;-62
2022/07/16 07:00:38;;;;;;;6.87;2.40;;;;;;;;;;755335;185;631885;-63
2022/07/16 07:03:04;;;;;;;4.70;2.47;;;;;;;;;;752707;185;619122;-69
2022/07/16 07:05:30;;;;;;;3.90;2.40;;;;;;;;;;754729;185;623641;-69
2022/07/16 07:07:56;;;;;;;9.57;2.80;;;;;;;;;;753054;186;619496;-71
2022/07/16 07:10:21;;;;;;;5.33;2.43;;;;;;;;;;752821;185;648252;-68
2022/07/16 07:12:48;;;;;;;10.02;2.58;;;;;;;;;;755263;186;624774;-67
2022/07/16 07:15:14;;;;;;;4.07;2.30;;;;;;;;;;759655;184;614775;-67
2022/07/16 07:17:39;;;;;;;11.30;2.90;;;;;;;;;;755850;185;629533;-62
2022/07/16 07:20:07;;;;;;;5.70;2.93;;;;;;;;;;753552;185;623984;-69
2022/07/16 07:22:31;;;;;;;4.67;2.37;;;;;;;;;;752654;185;618972;-70
2022/07/16 07:24:57;;;;;;;5.20;2.20;;;;;;;;;;752912;185;633743;-67
2022/07/16 07:27:23;;;;;;;6.10;3.40;;;;;;;;;;754761;186;615143;-60
2022/07/16 07:29:49;;;;;;;8.43;3.17;;;;;;;;;;757482;185;614899;-61
2022/07/16 07:32:15;;;;;;;8.50;3.57;;;;;;;;;;751327;185;633801;-63
2022/07/16 07:34:41;;;;;;;6.67;2.23;;;;;;;;;;754677;185;632098;-70
2022/07/16 07:37:07;;;;;;;7.90;2.80;;;;;;;;;;757977;185;633959;-69
2022/07/16 07:39:32;;;;;;;6.00;2.10;;;;;;;;;;753301;185;634706;-70
2022/07/16 07:41:58;;;;;;;5.57;2.17;;;;;;;;;;752752;183;640158;-64
2022/07/16 07:44:24;;;;;;;5.40;2.33;;;;;;;;;;755286;184;630449;-63
2022/07/16 07:46:51;;;;;;;12.30;2.90;;;;;;;;;;756198;185;618890;-63
2022/07/16 07:49:16;;;;;;;5.13;2.00;;;;;;;;;;752545;185;629611;-68
2022/07/16 07:51:42;;;;;;;4.90;2.50;;;;;;;;;;754211;186;631002;-63
2022/07/16 07:54:08;;;;;;;6.80;2.30;;;;;;;;;;758517;183;626945;-69
2022/07/16 07:56:34;;;;;;;8.70;3.07;;;;;;;;;;753088;185;627172;-64
2022/07/16 07:59:00;;;;;;;4.17;2.43;;;;;;;;;;759256;184;615312;-69
2022/07/16 08:01:26;;;;;;;5.30;2.40;;;;;;;;;;753876;184;623308;-62
2022/07/16 08:03:51;;;;;;;9.30;3.17;;;;;;;;;;749771;186;641236;-70
2022/07/16 08:06:17;;;;;;;5.40;2.00;;;;;;;;;;755294;185;628666;-70
2022/07/16 08:08:43;;;;;;;8.17;2.20;;;;;;;;;;752241;185;639588;-68
2022/07/16 08:11:09;;;;;;;6.27;2.47;;;;;;;;;;760023;182;623303;-64
2022/07/16 08:13:35;;;;;;;6.77;3.97;;;;;;;;;;760427;182;630025;-68
2022/07/16 08:16:01;;;;;;;13.63;2.70;;;;;;;;;;753997;184;614843;-68
2022/07/16 08:18:27;;;;;;;10.80;2.40;;;;;;;;;;753993;185;657995;-70
2022/07/16 08:20:52;;;;;;;5.27;2.40;;;;;;;;;;754068;184;623743;-69
2022/07/16 08:25:44;;;;;;;5.60;2.67;;;;;;;;;;757191;185;621650;-64
2022/07/16 08:25:44;;;;;;;5.30;2.40;;;;;;;;;;756046;185;616769;-69
2022/07/16 08:28:10;;;;;;;6.30;2.83;;;;;;;;;;755539;185;619360;-65
2022/07/16 08:30:37;;;;;;;5.03;2.80;;;;;;;;;;757271;185;634742;-69
2022/07/16 08:33:03;;;;;;;4.90;2.77;;;;;;;;;;754967;185;618884;-70
2022/07/16 08:35:28;;;;;;;7.37;3.10;;;;;;;;;;746364;185;613359;-63
2022/07/16 08:37:54;;;;;;;9.50;2.90;;;;;;;;;;760554;183;630972;-68
2022/07/16 08:40:20;;;;;;;3.83;2.27;;;;;;;;;;749022;187;623316;-69
2022/07/16 08:42:46;;;;;;;4.47;2.97;;;;;;;;;;756269;184;635677;-71
2022/07/16 08:45:12;;;;;;;4.43;2.23;;;;;;;;;;744853;186;810316;-69
2022/07/16 08:47:38;;;;;;;4.77;2.63;;;;;;;;;;754342;185;617298;-64
2022/07/16 08:50:05;;;;;;;5.53;2.37;;;;;;;;;;761918;185;615128;-64
2022/07/16 08:52:31;;;;;;;4.70;2.47;;;;;;;;;;753456;185;641439;-71
2022/07/16 08:54:57;;;;;;;4.33;2.50;;;;;;;;;;753537;185;658839;-65
2022/07/16 08:57:23;;;;;;;5.37;2.17;;;;;;;;;;752185;185;622801;-63
2022/07/16 08:59:49;;;;;;;4.30;2.50;;;;;;;;;;758482;184;618217;-71
2022/07/16 09:02:15;;;;;;;6.87;2.40;;;;;;;;;;757323;184;646943;-68
2022/07/16 09:04:41;;;;;;;7.70;3.23;;;;;;;;;;751673;181;682094;-69
2022/07/16 09:07:07;;;;;;;5.20;2.10;;;;;;;;;;758362;185;692034;-69
2022/07/16 09:09:33;;;;;;;5.60;2.90;;;;;;;;;;754816;185;633833;-63
2022/07/16 09:11:59;;;;;;;4.53;2.60;;;;;;;;;;753695;185;676187;-63
2022/07/16 09:14:25;;;;;;;5.83;3.00;;;;;;;;;;758592;184;634331;-70
2022/07/16 09:16:51;;;;;;;6.43;2.50;;;;;;;;;;752655;185;629820;-63
2022/07/16 09:19:16;;;;;;;5.67;2.97;;;;;;;;;;754311;185;630301;-69
2022/07/16 09:21:48;;;;;;;5.47;3.03;;;;;;;;;;753515;185;630896;-69
2022/07/16 09:24:14;;;;;;;8.67;4.27;;;;;;;;;;753054;187;609951;-62
2022/07/16 09:26:40;;;;;;;4.37;2.40;;;;;;;;;;753808;185;616628;-70
2022/07/16 09:29:06;;;;;;;6.80;2.43;;;;;;;;;;754078;185;617036;-62
2022/07/16 09:31:40;;;;;;;8.13;3.00;;;;;;;;;;754998;185;639043;-72
2022/07/16 09:34:08;;;;;;;5.90;2.50;;;;;;;;;;757922;185;614825;-62
2022/07/16 09:36:34;;;;;;;6.97;2.90;;;;;;;;;;756295;185;623893;-63
2022/07/16 09:38:59;;;;;;;6.20;2.40;;;;;;;;;;752334;185;629818;-61
2022/07/16 09:41:25;;;;;;;8.60;3.23;;;;;;;;;;760197;185;624483;-62
2022/07/16 09:43:51;;;;;;;5.07;2.90;;;;;;;;;;753921;186;640686;-71
2022/07/16 09:46:19;;;;;;;5.40;3.23;;;;;;;;;;748589;185;646871;-70
2022/07/16 09:48:45;;;;;;;4.63;2.23;;;;;;;;;;754972;184;635421;-62
2022/07/16 09:51:19;;;;;;;11.43;2.43;;;;;;;;;;757320;185;635279;-70
2022/07/16 09:53:46;;;;;;;4.03;2.53;;;;;;;;;;754071;186;635611;-61
2022/07/16 09:56:12;;;;;;;6.73;2.90;;;;;;;;;;758419;183;617949;-61
2022/07/16 09:58:38;;;;;;;4.80;2.77;;;;;;;;;;756721;184;629383;-70
2022/07/16 10:01:03;;;;;;;4.90;2.80;;;;;;;;;;754409;185;619860;-71
2022/07/16 10:03:29;;;;;;;5.47;3.10;;;;;;;;;;757688;185;628411;-71
2022/07/16 10:05:55;;;;;;;8.43;2.60;;;;;;;;;;753343;185;636276;-74
2022/07/16 10:08:21;;;;;;;3.23;2.53;;;;;;;;;;755638;181;623653;-61
2022/07/16 10:10:47;;;;;;;5.87;2.80;;;;;;;;;;753429;185;623434;-75
2022/07/16 10:13:13;;;;;;;5.37;2.73;;;;;;;;;;746951;187;618262;-71
2022/07/16 10:15:38;;;;;;;7.13;3.03;;;;;;;;;;756078;184;629985;-62
2022/07/16 10:18:04;;;;;;;9.23;3.00;;;;;;;;;;752669;185;621066;-73
2022/07/16 10:20:34;;;;;;;7.13;2.53;;;;;;;;;;756226;185;632547;-73
2022/07/16 10:23:00;;;;;;;9.50;3.40;;;;;;;;;;758509;184;626467;-62
2022/07/16 10:25:26;;;;;;;5.90;2.90;;;;;;;;;;758725;185;626298;-72
2022/07/16 10:27:52;;;;;;;10.03;2.90;;;;;;;;;;758729;184;637179;-72
2022/07/16 10:30:19;;;;;;;5.00;2.50;;;;;;;;;;747477;186;624071;-74
2022/07/16 10:32:51;;;;;;;5.93;2.83;;;;;;;;;;758806;186;616575;-60
2022/07/16 10:35:24;;;;;;;4.63;2.70;;;;;;;;;;756803;183;624207;-60
2022/07/16 10:37:50;;;;;;;7.30;3.33;;;;;;;;;;761088;181;739616;-71
2022/07/16 10:40:16;;;;;;;4.83;2.80;;;;;;;;;;753763;184;633390;-61
2022/07/16 10:42:42;;;;;;;3.70;2.20;;;;;;;;;;757059;185;628256;-71
2022/07/16 10:45:08;;;;;;;6.60;2.60;;;;;;;;;;754517;185;627333;-70
2022/07/16 10:47:40;;;;;;;5.27;2.63;;;;;;;;;;754517;184;626983;-60
2022/07/16 10:50:13;;;;;;;7.87;2.80;;;;;;;;;;755063;183;617735;-68
2022/07/16 10:52:41;;;;;;;4.10;2.70;;;;;;;;;;761389;184;614415;-64
2022/07/16 10:55:07;;;;;;;3.67;2.50;;;;;;;;;;755771;186;634857;-71
2022/07/16 10:57:35;;;;;;;17.90;4.20;;;;;;;;;;757754;184;632092;-58
2022/07/16 11:00:01;;;;;;;6.93;3.93;;;;;;;;;;758231;184;628953;-72
2022/07/16 11:02:26;;;;;;;5.60;2.87;;;;;;;;;;761381;185;618693;-73
2022/07/16 11:04:52;;;;;;;10.03;3.10;;;;;;;;;;754361;186;628985;-61
2022/07/16 11:07:18;;;;;;;9.37;3.00;;;;;;;;;;751454;184;636748;-65
2022/07/16 11:09:44;;;;;;;10.40;4.03;;;;;;;;;;757243;185;638193;-71
2022/07/16 11:12:10;;;;;;;5.23;3.03;;;;;;;;;;752337;182;640106;-60
2022/07/16 11:14:35;;;;;;;4.00;2.73;;;;;;;;;;753140;187;658185;-73
2022/07/16 11:17:01;;;;;;;4.17;2.63;;;;;;;;;;759115;185;644696;-61
2022/07/16 11:19:27;;;;;;;6.53;2.90;;;;;;;;;;752644;184;620128;-71
2022/07/16 11:21:53;;;;;;;4.90;2.57;;;;;;;;;;751445;185;646526;-64
2022/07/16 11:24:20;;;;;;;5.43;3.23;;;;;;;;;;753815;185;637391;-69
2022/07/16 11:26:45;;;;;;;5.83;3.10;;;;;;;;;;756341;185;632211;-63
2022/07/16 11:29:11;;;;;;;8.43;3.10;;;;;;;;;;752240;184;615310;-68
2022/07/16 11:31:36;;;;;;;6.73;2.80;;;;;;;;;;754472;184;617592;-69
2022/07/16 11:34:03;;;;;;;5.07;3.20;;;;;;;;;;758753;184;633909;-63
2022/07/16 11:36:29;;;;;;;4.70;2.13;;;;;;;;;;754174;185;628152;-70
2022/07/16 11:38:56;;;;;;;3.87;2.60;;;;;;;;;;753131;182;625883;-63
2022/07/16 11:41:22;;;;;;;8.40;3.10;;;;;;;;;;755001;185;634636;-68
2022/07/16 11:43:48;;;;;;;5.50;2.60;;;;;;;;;;756998;181;630395;-63
2022/07/16 11:46:20;;;;;;;5.63;3.00;;;;;;;;;;748753;185;636185;-63
2022/07/16 11:48:45;;;;;;;5.93;2.63;;;;;;;;;;756366;185;619393;-63
2022/07/16 11:51:11;;;;;;;4.63;2.60;;;;;;;;;;758079;185;624576;-71
2022/07/16 11:53:37;;;;;;;5.47;3.80;;;;;;;;;;751483;185;772091;-70
2022/07/16 11:56:03;;;;;;;4.77;2.63;;;;;;;;;;753822;185;638066;-70
2022/07/16 11:58:30;;;;;;;5.65;2.87;;;;;;;;;;755577;185;626984;-67
2022/07/16 12:00:55;;;;;;;3.90;2.47;;;;;;;;;;756659;185;631563;-64
2022/07/16 12:03:21;;;;;;;5.53;2.30;;;;;;;;;;749856;184;622825;-67
2022/07/16 12:05:47;;;;;;;5.77;2.83;;;;;;;;;;752674;185;640750;-68
2022/07/16 12:08:13;;;;;;;3.20;2.60;;;;;;;;;;753932;185;631663;-64
2022/07/16 12:10:39;;;;;;;5.57;3.23;;;;;;;;;;755051;185;614397;-69
2022/07/16 12:13:06;;;;;;;3.67;2.50;;;;;;;;;;753455;185;621006;-68
2022/07/16 12:15:31;;;;;;;6.33;2.60;;;;;;;;;;752098;186;630260;-68
2022/07/16 12:17:57;;;;;;;9.20;3.70;;;;;;;;;;752790;185;658992;-63
2022/07/16 12:20:25;;;;;;;5.47;3.07;;;;;;;;;;753314;185;637130;-64
2022/07/16 12:23:07;;;;;;;6.90;3.07;;;;;;;;;;751377;186;630221;-64
2022/07/16 12:25:35;;;;;;;5.60;2.87;;;;;;;;;;747718;185;623671;-68
2022/07/16 12:28:03;;;;;;;5.40;2.80;;;;;;;;;;754347;185;627398;-67
2022/07/16 12:30:33;;;;;;;4.83;2.97;;;;;;;;;;747082;185;630049;-63
2022/07/16 12:32:59;;;;;;;5.33;2.80;;;;;;;;;;751980;185;623360;-69
2022/07/16 12:35:31;;;;;;;7.00;3.13;;;;;;;;;;756889;185;618833;-63
2022/07/16 12:37:56;;;;;;;11.87;3.00;;;;;;;;;;757154;185;633070;-62
2022/07/16 12:40:22;;;;;;;5.13;3.23;;;;;;;;;;757085;185;673931;-68
2022/07/16 12:42:48;;;;;;;4.73;2.40;;;;;;;;;;747970;185;616967;-68
2022/07/16 12:45:14;;;;;;;5.00;3.10;;;;;;;;;;759295;185;634183;-67
2022/07/16 12:47:40;;;;;;;5.23;2.70;;;;;;;;;;755174;184;626296;-68
2022/07/16 12:50:06;;;;;;;4.10;2.60;;;;;;;;;;754782;185;623673;-68
2022/07/16 12:52:32;;;;;;;4.10;2.73;;;;;;;;;;756692;185;637359;-63
2022/07/16 13:00:01;;;;;;;2.97;2.23;;;;;;;;;;754543;184;738749;-70
2022/07/16 13:02:27;;;;;;;9.60;2.67;;;;;;;;;;760279;185;625656;-62
2022/07/16 13:04:53;;;;;;;5.47;2.90;;;;;;;;;;752465;184;623282;-64
2022/07/16 13:07:18;;;;;;;4.13;2.47;;;;;;;;;;753824;185;626047;-65
2022/07/16 13:09:44;;;;;;;4.00;2.87;;;;;;;;;;754018;185;621007;-64
2022/07/16 13:12:10;;;;;;;5.77;3.07;;;;;;;;;;759322;185;614212;-67
2022/07/16 13:14:36;;;;;;;6.40;3.10;;;;;;;;;;756245;185;617099;-64
2022/07/16 13:17:02;;;;;;;5.47;2.90;;;;;;;;;;755873;183;619911;-62
2022/07/16 13:19:28;;;;;;;8.80;3.47;;;;;;;;;;764643;184;613640;-62
2022/07/16 13:21:53;;;;;;;7.97;3.20;;;;;;;;;;752758;185;628509;-62
2022/07/16 13:24:19;;;;;;;3.60;2.30;;;;;;;;;;741515;185;622239;-67
2022/07/16 13:26:45;;;;;;;8.03;3.40;;;;;;;;;;757343;185;618958;-67
2022/07/16 13:29:11;;;;;;;7.87;2.30;;;;;;;;;;752668;183;632671;-69
2022/07/16 13:31:37;;;;;;;4.20;3.10;;;;;;;;;;756703;185;629021;-67
2022/07/16 13:34:03;;;;;;;4.90;2.40;;;;;;;;;;756092;184;617045;-62
2022/07/16 13:36:28;;;;;;;3.40;2.23;;;;;;;;;;756294;185;736035;-68
2022/07/16 13:38:54;;;;;;;5.00;2.40;;;;;;;;;;755427;185;617451;-66
2022/07/16 13:41:21;;;;;;;4.50;2.63;;;;;;;;;;753415;185;637440;-62
2022/07/16 13:43:46;;;;;;;7.93;2.73;;;;;;;;;;756948;185;613177;-69
2022/07/16 13:46:12;;;;;;;4.47;2.50;;;;;;;;;;753007;185;636077;-62
2022/07/16 13:48:39;;;;;;;7.50;1.97;;;;;;;;;;752271;185;635546;-68
2022/07/16 13:51:04;;;;;;;10.43;2.90;;;;;;;;;;758005;185;626590;-61
2022/07/16 13:53:29;;;;;;;6.13;2.03;;;;;;;;;;754328;185;625622;-61
2022/07/16 13:55:55;;;;;;;5.03;1.87;;;;;;;;;;754871;184;640143;-61
2022/07/16 13:58:22;;;;;;;6.20;2.20;;;;;;;;;;759429;184;615945;-63
2022/07/16 14:00:48;;;;;;;4.50;1.57;;;;;;;;;;757302;185;615997;-66
2022/07/16 14:03:13;;;;;;;5.23;2.07;;;;;;;;;;758004;185;630857;-61
2022/07/16 14:05:39;;;;;;;5.93;1.93;;;;;;;;;;753383;185;628004;-66
2022/07/16 14:08:05;;;;;;;5.10;1.80;;;;;;;;;;753589;186;612045;-66
2022/07/16 14:10:31;;;;;;;3.80;1.53;;;;;;;;;;754063;182;624899;-62
2022/07/16 14:12:57;;;;;;;4.90;1.90;;;;;;;;;;754456;184;715991;-62
2022/07/16 14:15:23;;;;;;;4.03;1.47;;;;;;;;;;759752;185;612287;-65
2022/07/16 14:17:48;;;;;;;4.10;1.40;;;;;;;;;;753455;185;627111;-64
2022/07/16 14:20:14;;;;;;;2.90;1.50;;;;;;;;;;753067;185;659462;-66
2022/07/16 14:22:40;;;;;;;5.47;1.60;;;;;;;;;;758621;185;632750;-62
2022/07/16 14:25:07;;;;;;;2.30;1.30;;;;;;;;;;754799;185;629122;-68
2022/07/16 14:27:33;;;;;;;2.70;1.50;;;;;;;;;;758132;185;623631;-68